createdAt,value
2022-08-07T00:00:39.982Z,100.00
2022-08-07T00:03:09.952Z,100.00
2022-08-07T00:05:38.294Z,100.00
2022-08-07T00:08:07.755Z,100.00
2022-08-07T00:10:36.355Z,100.00
2022-08-07T00:13:23.924Z,100.00
2022-08-07T00:15:54.804Z,100.00
2022-08-07T00:18:25.877Z,100.00
2022-08-07T00:20:57.544Z,100.00
2022-08-07T00:23:30.088Z,100.00
2022-08-07T00:26:02.780Z,100.00
2022-08-07T00:28:35.641Z,100.00
2022-08-07T00:31:17.739Z,100.00
2022-08-07T00:33:47.735Z,100.00
2022-08-07T00:36:16.814Z,100.00
2022-08-07T00:38:45.119Z,100.00
2022-08-07T00:41:14.671Z,100.00
2022-08-07T00:44:00.351Z,100.00
2022-08-07T00:46:33.237Z,100.00
2022-08-07T00:49:03.684Z,100.00
2022-08-07T00:51:56.969Z,100.00
2022-08-07T00:54:20.385Z,100.00
2022-08-07T00:56:51.131Z,100.00
2022-08-07T00:59:20.027Z,100.00
2022-08-07T01:02:02.209Z,100.00
2022-08-07T01:04:32.820Z,100.00
2022-08-07T01:07:03.134Z,100.00
2022-08-07T01:10:04.012Z,100.00
2022-08-07T01:12:29.610Z,100.00
2022-08-07T01:15:01.077Z,100.00
2022-08-07T01:17:30.370Z,100.00
2022-08-07T01:20:06.552Z,100.00
2022-08-07T01:22:46.857Z,100.00
2022-08-07T01:25:54.132Z,100.00
2022-08-07T01:28:15.486Z,100.00
2022-08-07T01:30:43.769Z,100.00
2022-08-07T01:33:13.199Z,100.00
2022-08-07T01:35:54.130Z,100.00
2022-08-07T01:38:25.594Z,100.00
2022-08-07T01:40:55.430Z,100.00
2022-08-07T01:43:25.961Z,100.00
2022-08-07T01:45:55.548Z,100.00
2022-08-07T01:48:30.161Z,100.00
2022-08-07T01:51:08.278Z,100.00
2022-08-07T01:54:09.665Z,100.00
2022-08-07T01:56:49.411Z,100.00
2022-08-07T01:59:24.593Z,100.00
2022-08-07T02:02:04.403Z,100.00
2022-08-07T02:04:40.410Z,100.00
2022-08-07T02:07:35.811Z,100.00
2022-08-07T02:10:15.065Z,100.00
2022-08-07T02:12:46.554Z,100.00
2022-08-07T02:15:23.501Z,100.00
2022-08-07T02:17:54.985Z,100.00
2022-08-07T02:20:24.950Z,100.00
2022-08-07T02:22:54.881Z,100.00
2022-08-07T02:26:10.290Z,100.00
2022-08-07T02:28:14.290Z,100.00
2022-08-07T02:30:53.460Z,100.00
2022-08-07T02:33:21.773Z,100.00
2022-08-07T02:36:29.120Z,100.00
2022-08-07T02:38:38.838Z,100.00
2022-08-07T02:41:10.781Z,100.00
2022-08-07T02:43:40.585Z,100.00
2022-08-07T02:46:12.292Z,100.00
2022-08-07T02:48:54.678Z,100.00
2022-08-07T02:51:42.749Z,100.00
2022-08-07T02:54:14.064Z,100.00
2022-08-07T02:56:45.286Z,100.00
2022-08-07T02:59:24.005Z,100.00
2022-08-07T03:01:56.218Z,100.00
2022-08-07T03:04:25.631Z,100.00
2022-08-07T03:06:55.314Z,100.00
2022-08-07T03:09:43.945Z,100.00
2022-08-07T03:12:21.700Z,100.00
2022-08-07T03:14:52.658Z,100.00
2022-08-07T03:17:22.187Z,100.00
2022-08-07T03:19:54.492Z,100.00
2022-08-07T03:22:24.242Z,100.00
2022-08-07T03:24:59.861Z,100.00
2022-08-07T03:27:42.047Z,100.00
2022-08-07T03:30:18.233Z,100.00
2022-08-07T03:32:58.925Z,100.00
2022-08-07T03:35:43.384Z,100.00
2022-08-07T03:38:21.328Z,100.00
2022-08-07T03:40:57.878Z,100.00
2022-08-07T03:43:32.102Z,100.00
2022-08-07T03:46:01.581Z,100.00
2022-08-07T03:48:31.454Z,100.00
2022-08-07T03:50:59.881Z,100.00
2022-08-07T03:53:50.181Z,100.00
2022-08-07T03:56:33.328Z,100.00
2022-08-07T03:59:08.326Z,100.00
2022-08-07T04:01:43.192Z,100.00
2022-08-07T04:04:17.214Z,100.00
2022-08-07T04:06:45.468Z,100.00
2022-08-07T04:09:15.709Z,100.00
2022-08-07T04:12:26.287Z,100.00
2022-08-07T04:14:38.656Z,100.00
2022-08-07T04:17:20.336Z,100.00
2022-08-07T04:19:52.412Z,100.00
2022-08-07T04:22:23.705Z,100.00
2022-08-07T04:24:58.179Z,100.00
2022-08-07T04:27:26.820Z,100.00
2022-08-07T04:30:01.718Z,100.00
2022-08-07T04:32:34.752Z,100.00
2022-08-07T04:35:05.765Z,100.00
2022-08-07T04:37:52.715Z,100.00
2022-08-07T04:40:29.803Z,100.00
2022-08-07T04:43:01.608Z,100.00
2022-08-07T04:45:57.718Z,100.00
2022-08-07T04:48:34.386Z,100.00
2022-08-07T04:51:09.292Z,100.00
2022-08-07T04:54:05.805Z,100.00
2022-08-07T04:58:07.936Z,100.00
2022-08-07T05:00:10.946Z,100.00
2022-08-07T05:02:25.550Z,100.00
2022-08-07T05:05:01.001Z,100.00
2022-08-07T05:07:36.856Z,100.00
2022-08-07T05:10:20.997Z,100.00
2022-08-07T05:12:57.251Z,100.00
2022-08-07T05:15:35.326Z,100.00
2022-08-07T05:18:09.332Z,100.00
2022-08-07T05:20:42.761Z,100.00
2022-08-07T05:23:16.004Z,100.00
2022-08-07T05:26:12.948Z,100.00
2022-08-07T05:28:33.954Z,100.00
2022-08-07T05:31:03.639Z,100.00
2022-08-07T05:33:36.930Z,100.00
2022-08-07T05:36:06.754Z,100.00
2022-08-07T05:38:59.696Z,100.00
2022-08-07T05:41:23.587Z,100.00
2022-08-07T05:44:12.269Z,100.00
2022-08-07T05:46:42.921Z,100.00
2022-08-07T05:49:14.344Z,100.00
2022-08-07T05:51:43.493Z,100.00
2022-08-07T05:54:30.731Z,100.00
2022-08-07T05:57:04.020Z,100.00
2022-08-07T05:59:39.019Z,100.00
2022-08-07T06:02:28.458Z,100.00
2022-08-07T06:05:01.439Z,100.00
2022-08-07T06:08:14.504Z,100.00
2022-08-07T06:10:20.371Z,100.00
2022-08-07T06:12:48.830Z,100.00
2022-08-07T06:15:19.956Z,100.00
2022-08-07T06:17:50.845Z,100.00
2022-08-07T06:20:25.745Z,100.00
2022-08-07T06:23:25.116Z,100.00
2022-08-07T06:25:57.174Z,100.00
2022-08-07T06:28:27.755Z,100.00
2022-08-07T06:30:58.004Z,100.00
2022-08-07T06:33:27.268Z,100.00
2022-08-07T06:36:06.817Z,100.00
2022-08-07T06:38:58.673Z,100.00
2022-08-07T06:42:01.282Z,100.00
2022-08-07T06:44:22.605Z,100.00
2022-08-07T06:46:53.366Z,100.00
2022-08-07T06:49:28.142Z,100.00
2022-08-07T06:52:02.962Z,100.00
2022-08-07T06:55:33.577Z,100.00
2022-08-07T06:57:39.364Z,100.00
2022-08-07T07:00:18.159Z,100.00
2022-08-07T07:02:53.354Z,100.00
2022-08-07T07:06:04.954Z,100.00
2022-08-07T07:08:18.860Z,100.00
2022-08-07T07:10:56.991Z,100.00
2022-08-07T07:13:56.185Z,100.00
2022-08-07T07:16:22.093Z,100.00
2022-08-07T07:18:53.034Z,100.00
2022-08-07T07:21:27.061Z,100.00
2022-08-07T07:24:12.529Z,100.00
2022-08-07T07:26:51.972Z,100.00
2022-08-07T07:29:56.858Z,100.00
2022-08-07T07:32:13.947Z,100.00
2022-08-07T07:34:48.634Z,100.00
2022-08-07T07:37:45.148Z,100.00
2022-08-07T07:40:14.917Z,100.00
2022-08-07T07:42:47.134Z,100.00
2022-08-07T07:45:22.700Z,100.00
2022-08-07T07:48:08.870Z,100.00
2022-08-07T07:50:40.207Z,100.00
2022-08-07T07:53:13.495Z,100.00
2022-08-07T07:55:54.824Z,100.00
2022-08-07T07:58:27.909Z,100.00
2022-08-07T08:00:57.166Z,100.00
2022-08-07T08:04:09.642Z,100.00
2022-08-07T08:06:15.286Z,100.00
2022-08-07T08:08:44.407Z,100.00
2022-08-07T08:11:32.193Z,100.00
2022-08-07T08:14:05.799Z,100.00
2022-08-07T08:16:38.448Z,100.00
2022-08-07T08:19:18.099Z,99.11
2022-08-07T08:22:14.665Z,98.82
2022-08-07T08:25:09.590Z,96.89
2022-08-07T08:27:56.640Z,98.70
2022-08-07T08:30:32.106Z,100.00
2022-08-07T08:33:05.359Z,94.63
2022-08-07T08:35:49.910Z,93.87
2022-08-07T08:38:20.877Z,90.64
2022-08-07T08:40:57.097Z,93.18
2022-08-07T08:43:42.629Z,92.62
2022-08-07T08:46:24.220Z,93.78
2022-08-07T08:48:58.778Z,94.10
2022-08-07T08:52:00.859Z,95.47
2022-08-07T08:54:24.896Z,96.56
2022-08-07T08:56:54.647Z,92.98
2022-08-07T08:59:29.328Z,95.15
2022-08-07T09:02:02.187Z,98.93
2022-08-07T09:04:40.374Z,100.00
2022-08-07T09:07:14.720Z,100.00
2022-08-07T09:09:59.975Z,100.00
2022-08-07T09:12:53.091Z,98.99
2022-08-07T09:16:23.873Z,100.00
2022-08-07T09:18:37.681Z,95.84
2022-08-07T09:21:34.040Z,93.60
2022-08-07T09:24:33.627Z,97.36
2022-08-07T09:26:57.781Z,92.52
2022-08-07T09:30:03.321Z,94.17
2022-08-07T09:32:47.888Z,92.85
2022-08-07T09:36:05.425Z,89.92
2022-08-07T09:38:18.053Z,91.29
2022-08-07T09:40:59.732Z,88.69
2022-08-07T09:43:40.604Z,89.65
2022-08-07T09:47:31.295Z,88.23
2022-08-07T09:50:01.223Z,93.20
2022-08-07T09:52:37.320Z,89.23
2022-08-07T09:55:16.863Z,91.87
2022-08-07T09:58:15.706Z,90.25
2022-08-07T10:01:02.017Z,89.98
2022-08-07T10:04:06.621Z,93.56
2022-08-07T10:06:55.595Z,89.40
2022-08-07T10:10:00.808Z,89.36
2022-08-07T10:12:52.966Z,94.84
2022-08-07T10:15:43.972Z,91.70
2022-08-07T10:18:26.440Z,88.59
2022-08-07T10:21:19.605Z,86.96
2022-08-07T10:24:10.850Z,88.69
2022-08-07T10:26:54.065Z,89.23
2022-08-07T10:29:38.425Z,90.53
2022-08-07T10:32:36.605Z,82.93
2022-08-07T10:35:20.480Z,85.83
2022-08-07T10:38:20.946Z,83.90
2022-08-07T10:40:54.910Z,79.51
2022-08-07T10:43:34.526Z,88.65
2022-08-07T10:46:10.865Z,91.16
2022-08-07T10:48:48.568Z,88.16
2022-08-07T10:51:39.654Z,89.83
2022-08-07T10:54:14.786Z,89.26
2022-08-07T10:56:55.440Z,86.88
2022-08-07T10:59:37.245Z,84.81
2022-08-07T11:02:33.306Z,86.53
2022-08-07T11:05:14.866Z,81.47
2022-08-07T11:07:58.481Z,86.37
2022-08-07T11:10:33.675Z,77.93
2022-08-07T11:13:16.893Z,81.70
2022-08-07T11:16:07.169Z,81.09
2022-08-07T11:18:39.575Z,80.97
2022-08-07T11:21:14.095Z,83.22
2022-08-07T11:23:50.028Z,74.80
2022-08-07T11:26:23.587Z,77.15
2022-08-07T11:29:00.273Z,76.12
2022-08-07T11:31:39.905Z,82.12
2022-08-07T11:34:17.262Z,79.54
2022-08-07T11:36:56.428Z,75.88
2022-08-07T11:39:59.492Z,76.13
2022-08-07T11:42:29.621Z,79.40
2022-08-07T11:45:06.058Z,77.88
2022-08-07T11:47:55.819Z,78.04
2022-08-07T11:50:44.621Z,72.45
2022-08-07T11:53:36.302Z,80.89
2022-08-07T11:56:27.157Z,72.79
2022-08-07T11:59:02.352Z,74.76
2022-08-07T12:02:00.119Z,71.07
2022-08-07T12:04:44.275Z,73.92
2022-08-07T12:07:26.989Z,71.49
2022-08-07T12:09:58.681Z,66.93
2022-08-07T12:12:36.017Z,74.65
2022-08-07T12:15:35.687Z,75.07
2022-08-07T12:18:08.012Z,71.89
2022-08-07T12:20:37.846Z,72.24
2022-08-07T12:24:07.466Z,71.75
2022-08-07T12:26:35.441Z,73.70
2022-08-07T12:29:13.837Z,74.47
2022-08-07T12:31:52.872Z,83.24
2022-08-07T12:34:34.592Z,83.39
2022-08-07T12:37:08.665Z,88.53
2022-08-07T12:39:51.383Z,93.00
2022-08-07T12:42:27.612Z,94.21
2022-08-07T12:44:57.891Z,93.42
2022-08-07T12:47:31.059Z,96.97
2022-08-07T12:50:34.027Z,93.32
2022-08-07T12:52:58.732Z,93.37
2022-08-07T12:55:41.370Z,98.66
2022-08-07T12:58:21.497Z,100.00
2022-08-07T13:01:09.714Z,96.22
2022-08-07T13:04:02.351Z,100.00
2022-08-07T13:07:00.163Z,100.00
2022-08-07T13:10:19.372Z,100.00
2022-08-07T13:12:33.843Z,100.00
2022-08-07T13:15:09.478Z,100.00
2022-08-07T13:17:49.598Z,100.00
2022-08-07T13:20:36.521Z,100.00
2022-08-07T13:24:01.680Z,100.00
2022-08-07T13:26:04.672Z,100.00
2022-08-07T13:28:39.318Z,100.00
2022-08-07T13:31:13.515Z,99.16
2022-08-07T13:34:31.190Z,100.00
2022-08-07T13:36:42.634Z,94.72
2022-08-07T13:39:48.979Z,97.73
2022-08-07T13:42:10.412Z,100.00
2022-08-07T13:44:39.788Z,100.00
2022-08-07T13:47:15.977Z,100.00
2022-08-07T13:50:35.898Z,100.00
2022-08-07T13:52:46.997Z,100.00
2022-08-07T13:55:26.362Z,100.00
2022-08-07T13:58:27.880Z,100.00
2022-08-07T14:01:09.108Z,100.00
2022-08-07T14:04:07.352Z,100.00
2022-08-07T14:06:32.975Z,100.00
2022-08-07T14:09:04.579Z,100.00
2022-08-07T14:11:53.183Z,100.00
2022-08-07T14:14:30.737Z,100.00
2022-08-07T14:17:31.969Z,100.00
2022-08-07T14:20:43.114Z,100.00
2022-08-07T14:22:42.686Z,100.00
2022-08-07T14:25:13.646Z,100.00
2022-08-07T14:28:11.801Z,100.00
2022-08-07T14:30:36.406Z,100.00
2022-08-07T14:33:10.108Z,100.00
2022-08-07T14:35:47.542Z,100.00
2022-08-07T14:38:26.270Z,100.00
2022-08-07T14:41:03.870Z,100.00
2022-08-07T14:43:58.117Z,100.00
2022-08-07T14:46:31.508Z,100.00
2022-08-07T14:49:55.928Z,100.00
2022-08-07T14:52:04.770Z,100.00
2022-08-07T14:54:41.957Z,100.00
2022-08-07T14:57:15.006Z,100.00
2022-08-07T15:00:05.466Z,100.00
2022-08-07T15:02:37.272Z,100.00
2022-08-07T15:05:19.743Z,100.00
2022-08-07T15:07:52.012Z,100.00
2022-08-07T15:10:25.090Z,100.00
2022-08-07T15:12:59.509Z,100.00
2022-08-07T15:15:38.506Z,100.00
2022-08-07T15:18:28.329Z,100.00
2022-08-07T15:25:15.254Z,100.00
2022-08-07T15:26:44.107Z,100.00
2022-08-07T15:30:10.226Z,100.00
2022-08-07T15:32:06.390Z,100.00
2022-08-07T15:34:50.486Z,100.00
2022-08-07T15:37:28.284Z,100.00
2022-08-07T15:39:59.915Z,100.00
2022-08-07T15:42:51.745Z,100.00
2022-08-07T15:45:55.199Z,100.00
2022-08-07T15:48:25.670Z,100.00
2022-08-07T15:51:08.103Z,100.00
2022-08-07T15:53:51.771Z,100.00
2022-08-07T15:56:24.409Z,100.00
2022-08-07T15:58:55.189Z,100.00
2022-08-07T16:01:39.115Z,100.00
2022-08-07T16:04:15.369Z,100.00
2022-08-07T16:06:46.508Z,100.00
2022-08-07T16:09:22.422Z,100.00
2022-08-07T16:12:04.817Z,100.00
2022-08-07T16:14:42.205Z,100.00
2022-08-07T16:18:02.420Z,100.00
2022-08-07T16:20:42.403Z,100.00
2022-08-07T16:23:53.171Z,100.00
2022-08-07T16:26:14.560Z,100.00
2022-08-07T16:29:18.742Z,100.00
2022-08-07T16:32:00.575Z,100.00
2022-08-07T16:34:38.185Z,100.00
2022-08-07T16:38:03.754Z,100.00
2022-08-07T16:41:02.282Z,100.00
2022-08-07T16:44:02.499Z,100.00
2022-08-07T16:47:12.463Z,100.00
2022-08-07T16:50:35.866Z,100.00
2022-08-07T16:54:02.103Z,100.00
2022-08-07T16:56:20.343Z,100.00
2022-08-07T16:59:10.546Z,100.00
2022-08-07T17:01:51.009Z,100.00
2022-08-07T17:04:29.512Z,100.00
2022-08-07T17:07:08.344Z,100.00
2022-08-07T17:10:06.253Z,100.00
2022-08-07T17:12:45.466Z,100.00
2022-08-07T17:15:20.992Z,100.00
2022-08-07T17:17:58.667Z,100.00
2022-08-07T17:20:32.669Z,100.00
2022-08-07T17:23:08.833Z,100.00
2022-08-07T17:25:52.169Z,100.00
2022-08-07T17:28:31.281Z,100.00
2022-08-07T17:31:16.292Z,100.00
2022-08-07T17:34:32.677Z,100.00
2022-08-07T17:36:57.964Z,100.00
2022-08-07T17:39:58.259Z,100.00
2022-08-07T17:42:34.678Z,100.00
2022-08-07T17:45:15.047Z,100.00
2022-08-07T17:47:54.098Z,100.00
2022-08-07T17:50:30.556Z,100.00
2022-08-07T17:53:06.119Z,100.00
2022-08-07T17:55:55.866Z,100.00
2022-08-07T17:58:34.271Z,100.00
2022-08-07T18:01:21.070Z,100.00
2022-08-07T18:04:07.152Z,100.00
2022-08-07T18:06:39.284Z,100.00
2022-08-07T18:09:17.995Z,100.00
2022-08-07T18:12:19.643Z,100.00
2022-08-07T18:15:01.590Z,100.00
2022-08-07T18:18:45.242Z,100.00
2022-08-07T18:21:10.084Z,100.00
2022-08-07T18:23:43.498Z,100.00
2022-08-07T18:26:22.841Z,100.00
2022-08-07T18:29:05.245Z,100.00
2022-08-07T18:32:01.405Z,100.00
2022-08-07T18:35:00.924Z,100.00
2022-08-07T18:38:59.589Z,100.00
2022-08-07T18:40:42.716Z,100.00
2022-08-07T18:43:42.554Z,100.00
2022-08-07T18:46:24.492Z,100.00
2022-08-07T18:50:19.570Z,100.00
2022-08-07T18:52:25.606Z,100.00
2022-08-07T18:55:40.497Z,100.00
2022-08-07T18:58:16.905Z,100.00
2022-08-07T19:00:54.959Z,100.00
2022-08-07T19:03:36.166Z,100.00
2022-08-07T19:06:10.107Z,100.00
2022-08-07T19:09:55.794Z,100.00
2022-08-07T19:12:09.405Z,100.00
2022-08-07T19:14:51.103Z,100.00
2022-08-07T19:18:06.026Z,100.00
2022-08-07T19:20:28.731Z,100.00
2022-08-07T19:23:18.479Z,100.00
2022-08-07T19:26:25.369Z,100.00
2022-08-07T19:30:54.480Z,100.00
2022-08-07T19:31:58.688Z,100.00
2022-08-07T19:34:32.718Z,100.00
2022-08-07T19:37:10.202Z,100.00
2022-08-07T19:39:57.263Z,100.00
2022-08-07T19:42:33.584Z,100.00
2022-08-07T19:45:13.047Z,100.00
2022-08-07T19:48:01.012Z,100.00
2022-08-07T19:50:41.152Z,100.00
2022-08-07T19:54:32.756Z,100.00
2022-08-07T19:56:06.285Z,100.00
2022-08-07T19:58:52.852Z,100.00
2022-08-07T20:01:22.626Z,100.00
2022-08-07T20:04:11.394Z,100.00
2022-08-07T20:06:59.159Z,100.00
2022-08-07T20:10:35.219Z,100.00
2022-08-07T20:12:31.203Z,100.00
2022-08-07T20:15:09.542Z,100.00
2022-08-07T20:17:44.472Z,100.00
2022-08-07T20:20:26.653Z,100.00
2022-08-07T20:23:23.274Z,100.00
2022-08-07T20:25:53.161Z,100.00
2022-08-07T20:28:29.618Z,100.00
2022-08-07T20:31:01.595Z,100.00
2022-08-07T20:33:36.625Z,100.00
2022-08-07T20:36:08.790Z,100.00
2022-08-07T20:38:59.357Z,100.00
2022-08-07T20:41:27.041Z,100.00
2022-08-07T20:43:57.525Z,100.00
2022-08-07T20:46:32.387Z,100.00
2022-08-07T20:50:00.114Z,100.00
2022-08-07T20:51:51.559Z,100.00
2022-08-07T20:54:29.934Z,100.00
2022-08-07T20:57:02.843Z,100.00
2022-08-07T21:00:06.762Z,100.00
2022-08-07T21:02:54.508Z,100.00
2022-08-07T21:05:43.067Z,100.00
2022-08-07T21:08:15.526Z,100.00
2022-08-07T21:10:45.389Z,100.00
2022-08-07T21:13:19.581Z,100.00
2022-08-07T21:15:58.303Z,100.00
2022-08-07T21:18:33.948Z,100.00
2022-08-07T21:21:03.972Z,100.00
2022-08-07T21:23:42.658Z,100.00
2022-08-07T21:26:23.377Z,100.00
2022-08-07T21:28:55.946Z,100.00
2022-08-07T21:32:42.023Z,100.00
2022-08-07T21:34:32.339Z,100.00
2022-08-07T21:37:10.084Z,100.00
2022-08-07T21:39:51.794Z,100.00
2022-08-07T21:42:42.778Z,100.00
2022-08-07T21:46:04.822Z,100.00
2022-08-07T21:48:28.818Z,100.00
2022-08-07T21:51:12.477Z,100.00
2022-08-07T21:53:53.275Z,100.00
2022-08-07T21:56:35.995Z,100.00
2022-08-07T21:59:07.920Z,100.00
2022-08-07T22:02:07.043Z,100.00
2022-08-07T22:04:29.572Z,100.00
2022-08-07T22:07:02.320Z,100.00
2022-08-07T22:09:37.959Z,100.00
2022-08-07T22:12:17.701Z,100.00
2022-08-07T22:14:59.418Z,100.00
2022-08-07T22:17:35.932Z,100.00
2022-08-07T22:20:10.784Z,100.00
2022-08-07T22:22:57.946Z,100.00
2022-08-07T22:25:38.893Z,100.00
2022-08-07T22:28:31.189Z,100.00
2022-08-07T22:31:06.654Z,100.00
2022-08-07T22:33:57.100Z,100.00
2022-08-07T22:36:48.152Z,100.00
2022-08-07T22:39:29.787Z,100.00
2022-08-07T22:42:19.917Z,100.00
2022-08-07T22:44:58.925Z,100.00
2022-08-07T22:47:49.249Z,100.00
2022-08-07T22:50:37.449Z,100.00
2022-08-07T22:54:07.110Z,100.00
2022-08-07T22:56:38.869Z,100.00
2022-08-07T22:59:32.728Z,100.00
2022-08-07T23:02:08.184Z,100.00
2022-08-07T23:06:10.234Z,100.00
2022-08-07T23:08:30.640Z,100.00
2022-08-07T23:11:13.233Z,100.00
2022-08-07T23:14:10.575Z,100.00
2022-08-07T23:16:55.884Z,100.00
2022-08-07T23:19:58.539Z,100.00
2022-08-07T23:22:39.650Z,100.00
2022-08-07T23:25:19.111Z,100.00
2022-08-07T23:28:22.047Z,100.00
2022-08-07T23:31:06.586Z,100.00
2022-08-07T23:34:22.573Z,100.00
2022-08-07T23:37:19.256Z,100.00
2022-08-07T23:39:41.962Z,100.00
2022-08-07T23:42:21.624Z,100.00
2022-08-07T23:45:07.196Z,100.00
2022-08-07T23:47:53.705Z,100.00
2022-08-07T23:50:34.877Z,100.00
2022-08-07T23:53:16.704Z,100.00
2022-08-07T23:55:55.865Z,100.00
2022-08-07T23:58:37.578Z,100.00
